createdAt,value
2023-06-04T00:10:01.957Z,2.90
2023-06-04T00:20:27.341Z,3.00
2023-06-04T00:30:53.943Z,3.20
2023-06-04T00:41:19.952Z,2.70
2023-06-04T00:51:46.048Z,3.20
2023-06-04T01:02:14.585Z,2.80
2023-06-04T01:12:43.185Z,3.40
2023-06-04T01:23:28.367Z,2.20
2023-06-04T01:33:55.489Z,2.50
2023-06-04T01:44:21.178Z,2.10
2023-06-04T01:54:47.187Z,1.90
2023-06-04T02:05:13.677Z,2.30
2023-06-04T02:15:39.790Z,1.90
2023-06-04T02:26:06.916Z,2.10
2023-06-04T02:36:34.114Z,2.50
2023-06-04T02:46:59.636Z,1.90
2023-06-04T02:57:25.504Z,2.30
2023-06-04T07:12:14.173Z,2.50
2023-06-04T07:22:40.939Z,1.80
2023-06-04T07:33:07.621Z,2.20
2023-06-04T07:43:35.483Z,1.60
2023-06-04T07:54:01.461Z,1.10
2023-06-04T08:04:27.242Z,1.10
2023-06-04T08:14:52.981Z,1.30
2023-06-04T08:25:19.428Z,1.20
2023-06-04T08:35:45.394Z,1.20
2023-06-04T08:46:12.431Z,1.20
2023-06-04T08:56:38.740Z,1.90
2023-06-04T09:17:31.399Z,1.30
2023-06-04T09:27:59.116Z,1.10
2023-06-04T09:38:24.790Z,1.60
2023-06-04T09:48:50.987Z,1.70
2023-06-04T09:59:17.522Z,1.80
2023-06-04T10:09:46.997Z,1.50
2023-06-04T10:20:13.934Z,1.60
2023-06-04T10:30:40.027Z,1.80
2023-06-04T10:41:17.951Z,1.40
2023-06-04T10:51:45.200Z,1.80
2023-06-04T11:02:12.476Z,1.60
2023-06-04T11:12:47.807Z,2.20
2023-06-04T11:23:16.049Z,1.60
2023-06-04T11:33:48.713Z,1.80
2023-06-04T11:44:16.048Z,1.80
2023-06-04T11:54:42.464Z,2.10
2023-06-04T12:05:20.651Z,1.80
2023-06-04T12:16:49.942Z,1.90
2023-06-04T12:27:55.805Z,2.80
2023-06-04T12:38:21.682Z,1.70
2023-06-04T12:48:48.048Z,2.50
2023-06-04T12:59:14.437Z,2.20
2023-06-04T13:09:41.209Z,1.90
2023-06-04T13:20:09.798Z,1.50
2023-06-04T13:30:37.106Z,1.80
2023-06-04T13:41:03.328Z,2.10
2023-06-04T13:51:31.411Z,2.20
2023-06-04T14:01:57.200Z,2.10
2023-06-04T14:12:23.153Z,2.30
2023-06-04T14:22:49.296Z,2.40
2023-06-04T14:33:30.122Z,2.80
2023-06-04T14:43:55.956Z,1.90
2023-06-04T14:54:22.002Z,2.30
2023-06-04T15:04:48.165Z,2.00
2023-06-04T15:15:14.837Z,2.10
2023-06-04T15:25:40.962Z,2.40
2023-06-04T15:46:31.950Z,2.20
2023-06-04T16:07:23.407Z,1.70
2023-06-04T16:17:49.827Z,2.10
2023-06-04T16:28:16.785Z,1.80
2023-06-04T16:38:43.169Z,1.80
2023-06-04T16:49:09.235Z,1.30
2023-06-04T16:59:35.597Z,2.10
2023-06-04T17:10:01.597Z,2.00
2023-06-04T17:20:27.490Z,2.20
2023-06-04T17:30:53.940Z,2.20
2023-06-04T17:41:20.303Z,1.90
2023-06-04T18:02:12.715Z,2.00
2023-06-04T18:12:39.564Z,2.20
2023-06-04T18:23:06.473Z,1.90
2023-06-04T18:33:32.972Z,1.80
2023-06-04T18:44:32.514Z,1.50
2023-06-04T18:54:58.930Z,1.90
2023-06-04T19:05:32.466Z,1.90
2023-06-04T19:15:58.928Z,2.10
2023-06-04T19:26:24.801Z,2.10
2023-06-04T19:36:50.708Z,2.10
2023-06-04T19:47:16.871Z,2.00
2023-06-04T19:57:45.799Z,2.60
2023-06-04T20:08:12.376Z,2.70
2023-06-04T20:29:04.436Z,1.90
2023-06-04T20:39:32.036Z,2.50
2023-06-04T21:00:22.559Z,2.90
2023-06-04T21:10:49.031Z,3.50
2023-06-04T21:21:14.917Z,3.10
2023-06-04T21:31:41.820Z,2.90
2023-06-04T21:42:08.662Z,2.90
2023-06-04T21:52:34.786Z,2.70
2023-06-04T22:03:00.814Z,2.70
2023-06-04T22:13:50.914Z,3.10
2023-06-04T22:24:46.999Z,2.40
2023-06-04T22:35:13.701Z,2.50
2023-06-04T22:45:41.914Z,2.30
2023-06-04T22:56:10.353Z,3.00
2023-06-04T23:06:37.902Z,2.40
2023-06-04T23:17:03.819Z,2.50
2023-06-04T23:27:29.856Z,2.30
2023-06-04T23:37:56.003Z,2.40
2023-06-04T23:48:21.817Z,3.10
2023-06-04T23:58:48.515Z,2.30
